createdAt,value
2022-12-18T00:02:04.932Z,37.13
2022-12-18T00:04:32.681Z,36.67
2022-12-18T00:07:00.322Z,31.80
2022-12-18T00:09:31.175Z,31.25
2022-12-18T00:14:43.905Z,31.75
2022-12-18T00:17:11.562Z,31.10
2022-12-18T00:19:39.206Z,30.27
2022-12-18T00:22:07.700Z,33.38
2022-12-18T00:24:35.371Z,31.77
2022-12-18T00:27:02.948Z,33.10
2022-12-18T00:29:30.653Z,33.90
2022-12-18T00:31:59.935Z,33.28
2022-12-18T00:34:27.696Z,32.17
2022-12-18T00:36:55.348Z,31.50
2022-12-18T00:39:23.630Z,33.25
2022-12-18T00:42:10.230Z,32.67
2022-12-18T00:44:38.046Z,32.22
2022-12-18T00:47:05.755Z,31.90
2022-12-18T00:49:33.451Z,33.00
2022-12-18T00:52:01.417Z,29.58
2022-12-18T00:54:29.260Z,32.70
2022-12-18T00:56:56.952Z,30.10
2022-12-18T00:59:49.219Z,31.80
2022-12-18T01:02:17.102Z,30.45
2022-12-18T01:04:44.819Z,29.65
2022-12-18T01:07:13.982Z,31.35
2022-12-18T01:09:44.022Z,32.88
2022-12-18T01:12:11.804Z,28.10
2022-12-18T01:14:41.088Z,28.50
2022-12-18T01:17:08.875Z,30.60
2022-12-18T01:19:37.085Z,29.08
2022-12-18T01:22:05.435Z,27.58
2022-12-18T01:24:33.505Z,30.02
2022-12-18T01:27:01.118Z,28.15
2022-12-18T01:29:28.732Z,29.92
2022-12-18T01:31:57.250Z,30.05
2022-12-18T01:34:25.160Z,29.70
2022-12-18T01:36:53.211Z,29.33
2022-12-18T01:39:21.175Z,28.33
2022-12-18T01:42:03.976Z,33.03
2022-12-18T01:44:55.915Z,30.42
2022-12-18T01:47:26.658Z,28.23
2022-12-18T01:49:54.959Z,30.83
2022-12-18T01:52:23.421Z,29.38
2022-12-18T01:54:52.286Z,29.15
2022-12-18T01:57:21.263Z,29.58
2022-12-18T01:59:51.435Z,34.00
2022-12-18T02:02:19.661Z,28.77
2022-12-18T02:04:49.543Z,29.92
2022-12-18T02:09:46.415Z,31.98
2022-12-18T02:12:22.477Z,30.48
2022-12-18T02:14:56.519Z,35.78
2022-12-18T02:17:26.570Z,27.65
2022-12-18T02:20:05.929Z,29.98
2022-12-18T02:22:39.806Z,28.63
2022-12-18T02:25:18.270Z,29.08
2022-12-18T02:27:47.486Z,29.25
2022-12-18T02:30:16.955Z,29.65
2022-12-18T02:32:47.890Z,30.15
2022-12-18T02:35:19.433Z,31.15
2022-12-18T02:37:49.322Z,31.65
2022-12-18T02:40:19.128Z,31.15
2022-12-18T02:42:46.964Z,30.42
2022-12-18T02:45:17.982Z,31.20
2022-12-18T02:47:49.133Z,32.75
2022-12-18T02:50:37.524Z,32.70
2022-12-18T02:53:24.061Z,32.80
2022-12-18T02:55:58.143Z,30.55
2022-12-18T02:58:39.458Z,32.83
2022-12-18T03:01:18.499Z,31.95
2022-12-18T03:03:53.645Z,33.70
2022-12-18T03:06:30.620Z,35.70
2022-12-18T03:09:00.210Z,33.85
2022-12-18T03:11:48.977Z,33.03
2022-12-18T03:14:18.385Z,35.47
2022-12-18T03:16:48.965Z,33.97
2022-12-18T03:19:22.402Z,36.75
2022-12-18T03:21:55.233Z,37.47
2022-12-18T03:24:26.061Z,34.17
2022-12-18T03:27:01.031Z,34.47
2022-12-18T03:29:31.861Z,35.15
2022-12-18T03:32:19.037Z,33.55
2022-12-18T03:34:48.625Z,31.95
2022-12-18T03:37:17.232Z,32.13
2022-12-18T03:39:45.807Z,31.80
2022-12-18T03:42:19.599Z,34.70
2022-12-18T03:44:54.250Z,33.20
2022-12-18T03:47:27.387Z,33.70
2022-12-18T03:50:09.601Z,36.63
2022-12-18T03:52:50.065Z,30.52
2022-12-18T03:55:18.787Z,35.75
2022-12-18T03:57:50.224Z,35.47
2022-12-18T04:00:18.997Z,34.17
2022-12-18T04:03:06.489Z,35.17
2022-12-18T04:05:42.395Z,36.13
2022-12-18T04:08:11.187Z,37.60
2022-12-18T04:10:43.958Z,39.08
2022-12-18T04:13:12.977Z,39.78
2022-12-18T04:15:42.425Z,39.33
2022-12-18T04:18:14.440Z,39.88
2022-12-18T04:20:44.036Z,39.03
2022-12-18T04:23:13.753Z,38.50
2022-12-18T04:25:42.328Z,38.47
2022-12-18T04:28:13.820Z,41.53
2022-12-18T04:30:42.126Z,39.50
2022-12-18T04:33:10.922Z,38.92
2022-12-18T04:35:39.414Z,39.67
2022-12-18T04:38:09.283Z,39.15
2022-12-18T04:40:37.715Z,39.60
2022-12-18T04:43:10.873Z,38.20
2022-12-18T04:45:39.090Z,38.05
2022-12-18T04:48:08.885Z,39.53
2022-12-18T04:50:37.461Z,39.60
2022-12-18T04:53:05.356Z,40.40
2022-12-18T04:55:33.092Z,37.20
2022-12-18T04:58:00.875Z,39.40
2022-12-18T05:00:29.195Z,39.78
2022-12-18T05:02:57.458Z,39.35
2022-12-18T05:05:25.335Z,37.72
2022-12-18T05:07:53.047Z,42.90
2022-12-18T05:10:21.483Z,37.97
2022-12-18T05:13:01.380Z,36.72
2022-12-18T05:15:33.135Z,42.15
2022-12-18T05:18:01.509Z,41.78
2022-12-18T05:20:29.178Z,39.15
2022-12-18T05:22:57.369Z,38.70
2022-12-18T05:25:25.414Z,44.67
2022-12-18T05:27:53.282Z,35.63
2022-12-18T05:30:20.932Z,37.53
2022-12-18T05:32:48.667Z,40.90
2022-12-18T05:35:16.378Z,39.53
2022-12-18T05:37:44.412Z,39.25
2022-12-18T05:40:12.501Z,41.15
2022-12-18T05:42:40.163Z,39.22
2022-12-18T05:45:08.137Z,39.67
2022-12-18T05:47:37.355Z,38.58
2022-12-18T05:50:05.278Z,37.65
2022-12-18T05:52:32.879Z,41.15
2022-12-18T05:55:00.635Z,37.25
2022-12-18T05:57:28.560Z,40.90
2022-12-18T05:59:56.437Z,38.47
2022-12-18T06:02:24.535Z,38.03
2022-12-18T06:04:54.146Z,41.33
2022-12-18T06:07:21.872Z,43.35
2022-12-18T06:09:51.486Z,41.40
2022-12-18T06:12:20.083Z,39.00
2022-12-18T06:14:47.872Z,40.35
2022-12-18T06:17:16.068Z,40.10
2022-12-18T06:19:43.912Z,41.25
2022-12-18T06:22:11.684Z,39.15
2022-12-18T06:24:40.765Z,39.10
2022-12-18T06:27:09.087Z,40.10
2022-12-18T06:29:37.483Z,40.22
2022-12-18T06:32:12.643Z,38.67
2022-12-18T06:34:41.313Z,40.92
2022-12-18T06:37:08.853Z,39.90
2022-12-18T06:39:37.282Z,40.55
2022-12-18T06:42:05.314Z,36.60
2022-12-18T06:44:33.734Z,38.65
2022-12-18T06:47:02.951Z,37.08
2022-12-18T06:49:33.915Z,38.05
2022-12-18T06:52:08.998Z,40.22
2022-12-18T06:54:40.276Z,38.42
2022-12-18T06:57:09.561Z,38.58
2022-12-18T06:59:37.438Z,36.60
2022-12-18T07:04:47.576Z,37.67
2022-12-18T07:07:18.240Z,39.70
2022-12-18T07:09:47.511Z,39.05
2022-12-18T07:12:15.427Z,36.78
2022-12-18T07:14:50.033Z,40.53
2022-12-18T07:20:06.693Z,37.25
2022-12-18T07:22:38.205Z,36.90
2022-12-18T07:25:10.039Z,37.30
2022-12-18T07:27:37.865Z,37.28
2022-12-18T07:30:07.643Z,37.45
2022-12-18T07:32:42.998Z,34.78
2022-12-18T07:35:14.374Z,34.58
2022-12-18T07:40:13.749Z,34.10
2022-12-18T07:42:45.050Z,36.33
2022-12-18T07:45:20.501Z,36.53
2022-12-18T07:47:52.546Z,36.45
2022-12-18T07:53:11.860Z,38.10
2022-12-18T07:56:05.468Z,35.65
2022-12-18T08:04:06.263Z,37.05
2022-12-18T08:06:34.763Z,35.13
2022-12-18T08:09:02.348Z,38.45
2022-12-18T08:14:13.294Z,40.67
2022-12-18T08:16:43.380Z,37.17
2022-12-18T08:35:46.340Z,37.88
2022-12-18T08:38:20.115Z,36.60
2022-12-18T08:49:26.294Z,33.65
2022-12-18T09:03:31.483Z,31.08
2022-12-18T09:05:59.341Z,30.30
2022-12-18T09:08:30.786Z,31.08
2022-12-18T09:16:28.809Z,30.92
2022-12-18T09:19:08.304Z,31.35
2022-12-18T09:24:19.327Z,30.50
2022-12-18T09:32:16.347Z,31.50
2022-12-18T09:57:49.699Z,26.98
2022-12-18T10:00:23.262Z,26.10
2022-12-18T10:02:53.945Z,24.35
2022-12-18T10:05:40.693Z,25.10
2022-12-18T10:19:42.985Z,22.27
2022-12-18T10:33:05.001Z,22.80
2022-12-18T10:54:23.153Z,21.65
2022-12-18T10:56:51.055Z,20.63
2022-12-18T11:02:28.687Z,22.90
2022-12-18T11:05:09.834Z,23.38
2022-12-18T11:08:10.447Z,20.35
2022-12-18T11:10:41.351Z,21.70
2022-12-18T11:13:26.868Z,22.20
2022-12-18T11:18:42.216Z,21.05
2022-12-18T11:26:40.821Z,20.52
2022-12-18T11:37:25.504Z,19.00
2022-12-18T11:43:05.648Z,21.23
2022-12-18T11:51:02.163Z,21.02
2022-12-18T11:56:33.658Z,22.17
2022-12-18T12:02:38.104Z,22.55
2022-12-18T12:05:12.415Z,18.88
2022-12-18T12:13:22.570Z,19.83
2022-12-18T12:19:00.323Z,18.77
2022-12-18T12:21:41.477Z,17.85
2022-12-18T12:27:11.676Z,19.52
2022-12-18T12:29:54.004Z,19.45
2022-12-18T12:32:33.782Z,21.35
2022-12-18T12:43:36.984Z,19.08
2022-12-18T12:57:32.157Z,18.92
2022-12-18T13:03:11.626Z,19.02
2022-12-18T13:14:33.456Z,17.75
2022-12-18T13:17:18.751Z,18.08
2022-12-18T13:28:23.361Z,16.65
2022-12-18T13:31:09.369Z,19.10
2022-12-18T13:36:29.332Z,16.98
2022-12-18T13:39:13.803Z,18.70
2022-12-18T13:41:42.720Z,19.05
2022-12-18T13:44:26.275Z,19.27
2022-12-18T13:46:55.078Z,16.85
2022-12-18T13:49:24.545Z,17.80
2022-12-18T13:51:53.401Z,18.83
2022-12-18T13:54:42.094Z,18.77
2022-12-18T13:57:28.102Z,18.63
2022-12-18T13:59:56.759Z,18.67
2022-12-18T14:02:26.232Z,19.45
2022-12-18T14:04:55.119Z,19.90
2022-12-18T14:07:24.866Z,17.67
2022-12-18T14:10:12.067Z,19.17
2022-12-18T14:13:02.142Z,17.58
2022-12-18T14:15:44.684Z,18.80
2022-12-18T14:20:44.459Z,18.23
2022-12-18T14:23:32.768Z,20.08
2022-12-18T14:26:05.725Z,19.42
2022-12-18T14:28:34.162Z,18.15
2022-12-18T14:31:02.107Z,18.63
2022-12-18T14:33:29.820Z,16.50
2022-12-18T14:36:01.727Z,17.08
2022-12-18T14:38:33.789Z,17.00
2022-12-18T14:41:01.962Z,20.23
2022-12-18T14:43:30.671Z,17.40
2022-12-18T14:45:59.353Z,17.33
2022-12-18T14:48:36.947Z,17.85
2022-12-18T14:51:06.729Z,18.50
2022-12-18T14:53:40.969Z,18.05
2022-12-18T14:56:19.480Z,17.73
2022-12-18T14:59:26.345Z,19.52
2022-12-18T15:02:06.377Z,17.67
2022-12-18T15:04:48.437Z,18.63
2022-12-18T15:07:21.355Z,17.48
2022-12-18T15:10:04.872Z,19.10
2022-12-18T15:12:48.066Z,20.35
2022-12-18T15:15:34.951Z,20.10
2022-12-18T15:18:14.877Z,17.60
2022-12-18T15:20:45.673Z,19.02
2022-12-18T15:23:19.610Z,16.17
2022-12-18T15:25:48.344Z,18.35
2022-12-18T15:28:25.563Z,17.50
2022-12-18T15:31:04.267Z,16.83
2022-12-18T15:33:34.728Z,19.10
2022-12-18T15:36:03.648Z,17.75
2022-12-18T15:38:31.534Z,19.50
2022-12-18T15:41:00.545Z,18.13
2022-12-18T15:43:35.584Z,19.33
2022-12-18T15:46:07.243Z,18.10
2022-12-18T15:51:50.379Z,19.25
2022-12-18T15:54:18.518Z,18.40
2022-12-18T15:57:05.001Z,20.20
2022-12-18T15:59:32.804Z,18.02
2022-12-18T16:02:03.713Z,17.95
2022-12-18T16:04:35.058Z,19.40
2022-12-18T16:09:47.112Z,17.27
2022-12-18T16:12:27.854Z,17.35
2022-12-18T16:15:09.807Z,18.02
2022-12-18T16:17:39.423Z,19.17
2022-12-18T16:20:07.929Z,17.27
2022-12-18T16:25:24.614Z,17.63
2022-12-18T16:27:58.253Z,19.77
2022-12-18T16:30:38.597Z,17.80
2022-12-18T16:33:07.610Z,19.00
2022-12-18T16:38:23.451Z,19.65
2022-12-18T16:41:09.982Z,18.58
2022-12-18T16:43:44.465Z,18.92
2022-12-18T16:46:19.401Z,18.70
2022-12-18T16:48:57.230Z,18.95
2022-12-18T16:56:51.767Z,19.65
2022-12-18T16:59:26.706Z,20.20
2022-12-18T17:07:35.644Z,18.87
2022-12-18T17:21:34.670Z,22.95
2022-12-18T17:24:03.404Z,18.77
2022-12-18T17:26:40.339Z,20.38
2022-12-18T17:37:52.878Z,21.13
2022-12-18T17:44:00.643Z,20.73
2022-12-18T17:49:24.709Z,20.58
2022-12-18T17:57:33.041Z,22.77
2022-12-18T18:05:35.161Z,21.35
2022-12-18T18:11:21.607Z,21.50
2022-12-18T18:14:12.221Z,21.20
2022-12-18T18:25:15.393Z,23.77
2022-12-18T18:30:41.971Z,27.10
2022-12-18T18:33:14.561Z,22.40
2022-12-18T18:36:08.669Z,24.83
2022-12-18T18:41:47.886Z,25.10
2022-12-18T18:47:14.329Z,21.08
2022-12-18T18:49:44.946Z,23.63
2022-12-18T18:57:57.860Z,23.55
2022-12-18T19:00:34.962Z,25.27
2022-12-18T19:12:16.446Z,23.45
2022-12-18T19:14:53.922Z,25.25
2022-12-18T19:17:31.558Z,24.73
2022-12-18T19:20:35.891Z,26.52
2022-12-18T19:26:40.023Z,25.35
2022-12-18T19:29:11.327Z,28.50
2022-12-18T19:37:33.765Z,26.23
2022-12-18T19:43:30.624Z,28.65
2022-12-18T19:49:11.823Z,28.73
2022-12-18T19:52:02.513Z,26.00
2022-12-18T19:54:33.113Z,29.73
2022-12-18T20:00:02.774Z,25.58
2022-12-18T20:02:40.627Z,28.95
2022-12-18T20:05:40.410Z,28.35
2022-12-18T20:11:32.364Z,27.65
2022-12-18T20:14:23.143Z,27.48
2022-12-18T20:22:39.124Z,27.17
2022-12-18T20:25:18.552Z,30.25
2022-12-18T20:27:51.001Z,30.40
2022-12-18T20:30:25.993Z,29.15
2022-12-18T20:32:57.307Z,29.75
2022-12-18T20:38:05.124Z,29.33
2022-12-18T20:40:35.909Z,32.17
2022-12-18T20:43:16.842Z,28.33
2022-12-18T20:48:12.855Z,30.00
2022-12-18T20:50:50.751Z,32.65
2022-12-18T20:53:20.140Z,30.65
2022-12-18T20:55:47.733Z,28.05
2022-12-18T20:58:16.079Z,29.83
2022-12-18T21:01:09.742Z,29.00
2022-12-18T21:03:38.633Z,32.17
2022-12-18T21:06:06.515Z,31.17
2022-12-18T21:08:41.821Z,32.20
2022-12-18T21:11:44.435Z,28.33
2022-12-18T21:14:14.619Z,27.75
2022-12-18T21:16:46.528Z,30.55
2022-12-18T21:21:58.050Z,29.23
2022-12-18T21:24:29.708Z,30.92
2022-12-18T21:27:00.517Z,30.60
2022-12-18T21:29:29.373Z,29.63
2022-12-18T21:31:57.202Z,30.48
2022-12-18T21:34:28.983Z,31.13
2022-12-18T21:37:04.072Z,32.78
2022-12-18T21:39:33.906Z,30.58
2022-12-18T21:42:20.510Z,31.08
2022-12-18T21:44:51.282Z,31.15
2022-12-18T21:47:26.789Z,30.98
2022-12-18T21:49:56.652Z,32.30
2022-12-18T21:52:31.533Z,30.90
2022-12-18T21:55:09.591Z,31.95
2022-12-18T21:57:48.447Z,31.35
2022-12-18T22:00:18.480Z,30.83
2022-12-18T22:02:46.699Z,29.07
2022-12-18T22:05:20.085Z,31.67
2022-12-18T22:07:48.456Z,31.98
2022-12-18T22:10:16.296Z,32.80
2022-12-18T22:12:45.859Z,31.00
2022-12-18T22:15:21.205Z,33.22
2022-12-18T22:17:59.983Z,29.55
2022-12-18T22:20:31.261Z,34.40
2022-12-18T22:23:01.057Z,31.67
2022-12-18T22:25:34.810Z,30.92
2022-12-18T22:28:22.043Z,31.63
2022-12-18T22:30:49.966Z,31.63
2022-12-18T22:33:21.059Z,33.92
2022-12-18T22:35:48.891Z,30.40
2022-12-18T22:38:16.598Z,32.38
2022-12-18T22:40:44.465Z,33.15
2022-12-18T22:43:12.439Z,29.45
2022-12-18T22:45:40.151Z,31.73
2022-12-18T22:48:07.981Z,30.20
2022-12-18T22:50:35.710Z,29.50
2022-12-18T22:53:03.321Z,29.48
2022-12-18T22:55:31.275Z,30.45
2022-12-18T22:57:59.008Z,32.10
2022-12-18T23:00:26.772Z,30.83
2022-12-18T23:02:59.833Z,28.88
2022-12-18T23:05:29.193Z,31.08
2022-12-18T23:07:56.945Z,29.77
2022-12-18T23:10:24.685Z,30.33
2022-12-18T23:12:52.381Z,29.05
2022-12-18T23:15:28.320Z,30.42
2022-12-18T23:17:57.157Z,29.63
2022-12-18T23:20:25.000Z,30.42
2022-12-18T23:22:52.911Z,29.40
2022-12-18T23:25:20.628Z,28.80
2022-12-18T23:27:48.291Z,30.02
2022-12-18T23:30:16.034Z,30.67
2022-12-18T23:32:43.704Z,29.48
2022-12-18T23:35:11.773Z,31.90
2022-12-18T23:38:00.098Z,31.55
2022-12-18T23:40:29.361Z,27.58
2022-12-18T23:42:57.137Z,30.60
2022-12-18T23:45:24.857Z,30.10
2022-12-18T23:47:52.642Z,30.88
2022-12-18T23:50:28.846Z,29.45
2022-12-18T23:52:57.639Z,29.90
2022-12-18T23:55:32.324Z,28.38
2022-12-18T23:57:59.882Z,28.15
